createdAt,value
2022-09-11T00:00:16.307Z,12.9
2022-09-11T00:01:26.706Z,13
2022-09-11T00:02:36.818Z,13
2022-09-11T00:03:46.655Z,13.1
2022-09-11T00:06:07.165Z,13.1
2022-09-11T00:07:16.028Z,13.1
2022-09-11T00:08:26.154Z,13.1
2022-09-11T00:09:36.262Z,13.1
2022-09-11T00:10:46.385Z,13.1
2022-09-11T00:11:56.764Z,13.1
2022-09-11T00:13:06.611Z,13.1
2022-09-11T00:14:16.739Z,13
2022-09-11T00:15:27.118Z,13
2022-09-11T00:16:36.976Z,13
2022-09-11T00:17:47.084Z,13
2022-09-11T00:18:57.206Z,12.9
2022-09-11T00:20:07.000Z,12.9
2022-09-11T00:21:17.446Z,12.8
2022-09-11T00:22:26.841Z,12.8
2022-09-11T00:23:36.699Z,12.7
2022-09-11T00:24:46.804Z,12.7
2022-09-11T00:25:56.926Z,12.6
2022-09-11T00:27:07.049Z,12.6
2022-09-11T00:28:17.162Z,12.6
2022-09-11T00:29:27.285Z,12.5
2022-09-11T00:30:37.401Z,12.5
2022-09-11T00:31:47.791Z,12.6
2022-09-11T00:32:57.636Z,12.5
2022-09-11T00:34:07.761Z,12.5
2022-09-11T00:36:27.987Z,12.5
2022-09-11T00:37:37.129Z,12.6
2022-09-11T00:38:47.234Z,12.6
2022-09-11T00:39:57.357Z,12.6
2022-09-11T00:41:07.473Z,12.7
2022-09-11T00:42:17.596Z,12.7
2022-09-11T00:43:27.718Z,12.8
2022-09-11T00:44:37.823Z,12.8
2022-09-11T00:45:47.944Z,12.9
2022-09-11T00:46:58.332Z,12.9
2022-09-11T00:48:08.449Z,13
2022-09-11T00:49:18.288Z,13
2022-09-11T00:50:28.417Z,13.1
2022-09-11T00:51:38.532Z,13.1
2022-09-11T00:52:47.668Z,13.1
2022-09-11T00:53:57.789Z,13.2
2022-09-11T00:55:07.895Z,13.2
2022-09-11T00:56:18.017Z,13.2
2022-09-11T00:57:28.129Z,13.3
2022-09-11T00:58:38.257Z,13.3
2022-09-11T00:59:48.378Z,13.4
2022-09-11T01:00:58.756Z,13.4
2022-09-11T01:02:08.876Z,13.4
2022-09-11T01:04:28.845Z,13.4
2022-09-11T01:05:38.961Z,13.4
2022-09-11T01:06:49.076Z,13.5
2022-09-11T01:07:58.205Z,13.5
2022-09-11T01:09:08.592Z,13.5
2022-09-11T01:10:18.448Z,13.5
2022-09-11T01:11:28.557Z,13.5
2022-09-11T01:12:38.678Z,13.6
2022-09-11T01:13:48.796Z,13.6
2022-09-11T01:16:09.033Z,13.7
2022-09-11T01:17:19.153Z,13.8
2022-09-11T01:18:29.260Z,14
2022-09-11T01:19:39.393Z,14.1
2022-09-11T01:20:49.504Z,14.1
2022-09-11T01:21:59.624Z,14.2
2022-09-11T01:23:08.754Z,14.3
2022-09-11T01:24:18.882Z,14.3
2022-09-11T01:25:28.990Z,14.4
2022-09-11T01:26:39.118Z,14.4
2022-09-11T01:27:49.227Z,14.4
2022-09-11T01:28:59.334Z,14.4
2022-09-11T01:30:09.735Z,14.4
2022-09-11T01:32:29.958Z,14.4
2022-09-11T01:34:50.199Z,14.4
2022-09-11T01:37:09.464Z,14.4
2022-09-11T01:39:28.727Z,14.4
2022-09-11T01:41:47.994Z,14.4
2022-09-11T01:42:57.134Z,14.4
2022-09-11T01:44:06.270Z,14.4
2022-09-11T01:46:26.504Z,14.4
2022-09-11T01:47:36.625Z,14.4
2022-09-11T01:48:46.740Z,14.4
2022-09-11T01:49:56.851Z,14.4
2022-09-11T01:53:27.216Z,14.4
2022-09-11T01:54:37.322Z,14.4
2022-09-11T01:56:57.555Z,14.4
2022-09-11T01:58:07.678Z,14.5
2022-09-11T02:00:26.931Z,14.4
2022-09-11T02:02:46.183Z,14.4
2022-09-11T02:03:55.063Z,14.4
2022-09-11T02:05:04.201Z,14.4
2022-09-11T02:06:14.316Z,14.4
2022-09-11T02:07:24.443Z,14.4
2022-09-11T02:08:34.551Z,14.4
2022-09-11T02:09:44.671Z,14.4
2022-09-11T02:10:54.792Z,14.4
2022-09-11T02:12:04.914Z,14.4
2022-09-11T02:14:25.153Z,14.4
2022-09-11T02:15:35.273Z,14.4
2022-09-11T02:16:45.377Z,14.5
2022-09-11T02:17:55.505Z,14.5
2022-09-11T02:19:05.609Z,14.5
2022-09-11T02:20:14.748Z,14.5
2022-09-11T02:21:24.872Z,14.5
2022-09-11T02:22:35.246Z,14.5
2022-09-11T02:23:45.095Z,14.5
2022-09-11T02:24:55.228Z,14.5
2022-09-11T02:26:05.333Z,14.5
2022-09-11T02:27:15.449Z,14.5
2022-09-11T02:28:25.576Z,14.6
2022-09-11T02:29:34.719Z,14.6
2022-09-11T02:30:44.107Z,14.6
2022-09-11T02:31:53.977Z,14.7
2022-09-11T02:33:04.087Z,14.7
2022-09-11T02:34:14.209Z,14.7
2022-09-11T02:35:24.330Z,14.7
2022-09-11T02:36:34.436Z,14.7
2022-09-11T02:37:44.565Z,14.8
2022-09-11T02:38:54.667Z,14.8
2022-09-11T02:40:04.793Z,14.7
2022-09-11T02:41:14.916Z,14.7
2022-09-11T02:42:24.045Z,14.7
2022-09-11T02:43:33.179Z,14.7
2022-09-11T02:44:43.305Z,14.8
2022-09-11T02:45:53.421Z,14.8
2022-09-11T02:47:03.549Z,14.8
2022-09-11T02:48:13.656Z,14.8
2022-09-11T02:49:23.780Z,14.8
2022-09-11T02:50:33.899Z,14.8
2022-09-11T02:51:44.019Z,14.8
2022-09-11T02:52:54.123Z,14.9
2022-09-11T02:54:04.237Z,14.8
2022-09-11T02:56:24.470Z,14.9
2022-09-11T02:57:34.596Z,14.9
2022-09-11T02:58:43.730Z,14.9
2022-09-11T02:59:53.854Z,14.9
2022-09-11T03:01:03.956Z,14.9
2022-09-11T03:02:14.079Z,14.9
2022-09-11T03:03:24.201Z,14.9
2022-09-11T03:04:34.328Z,14.8
2022-09-11T03:05:44.439Z,14.8
2022-09-11T03:06:54.560Z,14.8
2022-09-11T03:08:04.663Z,14.8
2022-09-11T03:09:14.788Z,14.8
2022-09-11T03:10:24.914Z,14.8
2022-09-11T03:11:35.032Z,14.7
2022-09-11T03:12:45.136Z,14.7
2022-09-11T03:13:54.000Z,14.7
2022-09-11T03:15:03.404Z,14.7
2022-09-11T03:16:13.530Z,14.7
2022-09-11T03:17:23.646Z,14.7
2022-09-11T03:18:33.769Z,14.7
2022-09-11T03:19:43.876Z,14.7
2022-09-11T03:20:54.001Z,14.6
2022-09-11T03:22:04.126Z,14.6
2022-09-11T03:23:14.235Z,14.6
2022-09-11T03:24:24.358Z,14.6
2022-09-11T03:25:34.464Z,14.6
2022-09-11T03:26:44.585Z,14.6
2022-09-11T03:27:54.961Z,14.6
2022-09-11T03:29:04.820Z,14.6
2022-09-11T03:31:24.080Z,14.6
2022-09-11T03:32:34.183Z,14.6
2022-09-11T03:33:44.313Z,14.6
2022-09-11T03:34:54.419Z,14.6
2022-09-11T03:36:04.549Z,14.7
2022-09-11T03:37:14.657Z,14.7
2022-09-11T03:38:24.782Z,14.7
2022-09-11T03:39:34.889Z,14.7
2022-09-11T03:40:45.010Z,14.7
2022-09-11T03:41:55.129Z,14.8
2022-09-11T03:43:05.251Z,14.8
2022-09-11T03:44:15.375Z,14.8
2022-09-11T03:45:24.507Z,14.8
2022-09-11T03:46:34.611Z,14.8
2022-09-11T03:47:44.730Z,14.9
2022-09-11T03:48:54.863Z,14.9
2022-09-11T03:50:04.978Z,14.9
2022-09-11T03:51:15.081Z,14.9
2022-09-11T03:52:25.208Z,14.9
2022-09-11T03:53:35.323Z,14.9
2022-09-11T03:54:45.442Z,14.9
2022-09-11T03:55:55.566Z,14.9
2022-09-11T03:57:05.667Z,14.9
2022-09-11T03:58:15.801Z,14.9
2022-09-11T03:59:25.917Z,14.9
2022-09-11T04:00:35.036Z,14.9
2022-09-11T04:01:45.156Z,14.9
2022-09-11T04:02:55.274Z,14.9
2022-09-11T04:04:05.403Z,14.9
2022-09-11T04:05:15.510Z,14.9
2022-09-11T04:06:25.633Z,14.9
2022-09-11T04:07:35.745Z,14.9
2022-09-11T04:08:45.872Z,14.9
2022-09-11T04:09:55.977Z,14.9
2022-09-11T04:11:06.097Z,14.9
2022-09-11T04:12:16.219Z,14.9
2022-09-11T04:13:26.332Z,14.9
2022-09-11T04:14:36.459Z,14.9
2022-09-11T04:15:45.591Z,14.9
2022-09-11T04:16:55.713Z,14.9
2022-09-11T04:18:05.825Z,14.9
2022-09-11T04:19:15.949Z,14.9
2022-09-11T04:20:26.052Z,14.9
2022-09-11T04:21:36.176Z,14.9
2022-09-11T04:22:46.303Z,14.9
2022-09-11T04:25:06.787Z,14.9
2022-09-11T04:27:26.761Z,15
2022-09-11T04:28:36.873Z,15
2022-09-11T04:29:47.002Z,15
2022-09-11T04:30:56.125Z,15
2022-09-11T04:32:06.248Z,15
2022-09-11T04:34:26.480Z,15.1
2022-09-11T04:35:35.632Z,15.1
2022-09-11T04:36:44.768Z,15.1
2022-09-11T04:37:54.889Z,15.1
2022-09-11T04:39:04.994Z,15.1
2022-09-11T04:41:25.228Z,15.1
2022-09-11T04:42:35.354Z,15.1
2022-09-11T04:43:45.474Z,15.1
2022-09-11T04:44:55.579Z,15.1
2022-09-11T04:46:05.699Z,15.1
2022-09-11T04:47:15.828Z,15.1
2022-09-11T04:48:25.946Z,15.1
2022-09-11T04:49:36.053Z,15.1
2022-09-11T04:50:46.180Z,15.1
2022-09-11T04:51:55.300Z,15.1
2022-09-11T04:53:05.417Z,15.1
2022-09-11T04:54:15.537Z,15.1
2022-09-11T04:55:25.667Z,15.1
2022-09-11T04:56:35.786Z,15.1
2022-09-11T04:57:45.886Z,15.1
2022-09-11T04:58:56.009Z,15.1
2022-09-11T05:00:06.129Z,15.1
2022-09-11T05:02:25.387Z,15.1
2022-09-11T05:03:34.525Z,15.1
2022-09-11T05:04:44.645Z,15.1
2022-09-11T05:05:53.783Z,15.1
2022-09-11T05:07:02.923Z,15.1
2022-09-11T05:08:13.038Z,15.1
2022-09-11T05:09:23.163Z,15.1
2022-09-11T05:10:33.266Z,15.1
2022-09-11T05:11:43.388Z,15.1
2022-09-11T05:12:53.506Z,15.1
2022-09-11T05:14:03.627Z,15.1
2022-09-11T05:16:23.857Z,15.2
2022-09-11T05:17:33.979Z,15.2
2022-09-11T05:18:44.100Z,15.2
2022-09-11T05:19:54.000Z,15.2
2022-09-11T05:21:04.335Z,15.2
2022-09-11T05:23:23.572Z,15.2
2022-09-11T05:24:32.728Z,15.2
2022-09-11T05:25:41.850Z,15.2
2022-09-11T05:26:51.974Z,15.3
2022-09-11T05:28:02.100Z,15.2
2022-09-11T05:30:22.336Z,15.2
2022-09-11T05:31:32.438Z,15.2
2022-09-11T05:32:42.562Z,15.2
2022-09-11T05:33:52.690Z,15.2
2022-09-11T05:35:02.797Z,15.2
2022-09-11T05:37:23.044Z,15.3
2022-09-11T05:38:33.143Z,15.3
2022-09-11T05:39:42.289Z,15.3
2022-09-11T05:40:51.429Z,15.3
2022-09-11T05:42:01.546Z,15.3
2022-09-11T05:43:11.669Z,15.3
2022-09-11T05:44:21.774Z,15.4
2022-09-11T05:45:31.910Z,15.4
2022-09-11T05:46:42.023Z,15.4
2022-09-11T05:47:52.132Z,15.4
2022-09-11T05:49:02.243Z,15.4
2022-09-11T05:50:12.373Z,15.4
2022-09-11T05:51:22.489Z,15.4
2022-09-11T05:52:31.642Z,15.4
2022-09-11T05:53:40.772Z,15.5
2022-09-11T05:54:50.890Z,15.5
2022-09-11T05:56:00.993Z,15.5
2022-09-11T05:57:11.124Z,15.5
2022-09-11T05:58:21.231Z,15.5
2022-09-11T05:59:31.355Z,15.6
2022-09-11T06:00:41.727Z,15.6
2022-09-11T06:01:51.842Z,15.6
2022-09-11T06:03:01.700Z,15.6
2022-09-11T06:04:11.826Z,15.6
2022-09-11T06:05:20.965Z,15.7
2022-09-11T06:06:30.110Z,15.7
2022-09-11T06:07:40.000Z,15.7
2022-09-11T06:08:50.338Z,15.7
2022-09-11T06:10:00.459Z,15.7
2022-09-11T06:11:10.580Z,15.6
2022-09-11T06:12:20.687Z,15.6
2022-09-11T06:13:30.816Z,15.6
2022-09-11T06:14:40.923Z,15.7
2022-09-11T06:15:51.045Z,15.7
2022-09-11T06:17:01.150Z,15.8
2022-09-11T06:19:21.387Z,15.9
2022-09-11T06:20:31.507Z,15.8
2022-09-11T06:21:40.637Z,15.8
2022-09-11T06:22:50.761Z,15.8
2022-09-11T06:24:00.883Z,15.8
2022-09-11T06:26:21.111Z,15.8
2022-09-11T06:27:30.269Z,15.8
2022-09-11T06:28:39.398Z,15.8
2022-09-11T06:29:49.505Z,15.8
2022-09-11T06:30:59.636Z,15.8
2022-09-11T06:33:19.863Z,15.8
2022-09-11T06:34:29.988Z,15.7
2022-09-11T06:35:40.102Z,15.7
2022-09-11T06:36:50.209Z,15.7
2022-09-11T06:38:00.340Z,15.7
2022-09-11T06:40:20.564Z,15.9
2022-09-11T06:41:30.680Z,16
2022-09-11T06:42:39.823Z,16
2022-09-11T06:43:48.959Z,16
2022-09-11T06:44:59.083Z,15.9
2022-09-11T06:46:09.193Z,15.9
2022-09-11T06:47:19.314Z,16
2022-09-11T06:48:29.437Z,16.1
2022-09-11T06:49:39.557Z,16.1
2022-09-11T06:50:49.919Z,16.2
2022-09-11T06:51:59.781Z,16.3
2022-09-11T06:53:09.909Z,16.4
2022-09-11T06:54:20.015Z,16.4
2022-09-11T06:55:29.170Z,16.5
2022-09-11T06:56:38.287Z,16.6
2022-09-11T06:57:48.420Z,16.5
2022-09-11T06:58:58.527Z,16.6
2022-09-11T07:00:08.649Z,16.6
2022-09-11T07:01:18.771Z,16.7
2022-09-11T07:02:28.879Z,16.8
2022-09-11T07:03:38.998Z,16.9
2022-09-11T07:04:49.118Z,16.9
2022-09-11T07:05:59.229Z,17
2022-09-11T07:07:09.345Z,17.3
2022-09-11T07:08:18.500Z,17.4
2022-09-11T07:09:27.640Z,17.5
2022-09-11T07:10:38.002Z,17.5
2022-09-11T07:11:47.869Z,17.6
2022-09-11T07:12:57.989Z,17.5
2022-09-11T07:15:18.219Z,17.6
2022-09-11T07:16:28.343Z,17.8
2022-09-11T07:17:38.465Z,18.1
2022-09-11T07:18:48.584Z,18.1
2022-09-11T07:19:58.689Z,18.4
2022-09-11T07:21:08.820Z,18.3
2022-09-11T07:22:18.942Z,18.2
2022-09-11T07:23:29.044Z,18.2
2022-09-11T07:24:38.179Z,18.3
2022-09-11T07:25:48.301Z,18.4
2022-09-11T07:26:58.426Z,18.4
2022-09-11T07:28:08.533Z,18.7
2022-09-11T07:29:18.656Z,18.7
2022-09-11T07:30:28.774Z,18.8
2022-09-11T07:31:38.883Z,18.9
2022-09-11T07:32:49.013Z,19
2022-09-11T07:33:59.137Z,18.9
2022-09-11T07:36:19.362Z,18.4
2022-09-11T07:37:29.487Z,18.4
2022-09-11T07:38:39.596Z,18.5
2022-09-11T07:39:48.736Z,18.5
2022-09-11T07:40:58.851Z,18.5
2022-09-11T07:42:08.970Z,18.5
2022-09-11T07:43:19.080Z,18.3
2022-09-11T07:44:29.194Z,18.2
2022-09-11T07:45:39.321Z,18.1
2022-09-11T07:46:49.444Z,17.9
2022-09-11T07:47:59.567Z,17.7
2022-09-11T07:49:09.668Z,17.6
2022-09-11T07:50:19.792Z,17.5
2022-09-11T07:51:29.919Z,17.5
2022-09-11T07:52:40.023Z,17.5
2022-09-11T07:53:50.144Z,17.5
2022-09-11T07:54:59.286Z,17.5
2022-09-11T07:56:09.403Z,17.4
2022-09-11T07:57:19.511Z,17.3
2022-09-11T07:59:39.753Z,17.5
2022-09-11T08:00:49.876Z,17.5
2022-09-11T08:01:59.993Z,17.6
2022-09-11T08:04:20.215Z,17.6
2022-09-11T08:06:40.448Z,17.9
2022-09-11T08:07:49.594Z,17.8
2022-09-11T08:08:58.993Z,17.9
2022-09-11T08:10:08.854Z,17.9
2022-09-11T08:11:18.972Z,17.9
2022-09-11T08:12:29.090Z,17.9
2022-09-11T08:13:39.217Z,17.9
2022-09-11T08:14:49.320Z,17.8
2022-09-11T08:15:59.433Z,17.7
2022-09-11T08:17:09.567Z,17.5
2022-09-11T08:18:19.685Z,17.4
2022-09-11T08:19:29.793Z,17.6
2022-09-11T08:20:38.947Z,17.7
2022-09-11T08:21:48.080Z,17.9
2022-09-11T08:22:58.441Z,18
2022-09-11T08:24:08.305Z,18
2022-09-11T08:25:18.429Z,18.1
2022-09-11T08:26:28.550Z,18.1
2022-09-11T08:27:38.658Z,18.1
2022-09-11T08:28:48.788Z,17.8
2022-09-11T08:29:58.894Z,17.9
2022-09-11T08:31:09.020Z,18.1
2022-09-11T08:32:19.145Z,18
2022-09-11T08:33:29.251Z,18.1
2022-09-11T08:34:39.378Z,18.1
2022-09-11T08:35:49.486Z,18.1
2022-09-11T08:36:58.631Z,18.1
2022-09-11T08:38:08.746Z,18.2
2022-09-11T08:39:18.866Z,18.2
2022-09-11T08:40:28.972Z,18.1
2022-09-11T08:41:39.091Z,18.2
2022-09-11T08:42:49.210Z,18.5
2022-09-11T08:43:59.332Z,18.6
2022-09-11T08:46:19.562Z,18.8
2022-09-11T08:47:29.688Z,18.7
2022-09-11T08:48:39.794Z,18.7
2022-09-11T08:49:49.919Z,18.7
2022-09-11T08:51:00.034Z,18.7
2022-09-11T08:53:19.544Z,18.7
2022-09-11T08:54:29.657Z,18.8
2022-09-11T08:55:39.522Z,18.7
2022-09-11T08:56:49.648Z,18.6
2022-09-11T08:57:59.769Z,18.7
2022-09-11T08:59:09.874Z,18.7
2022-09-11T09:00:20.001Z,18.9
2022-09-11T09:01:30.108Z,19
2022-09-11T09:02:40.230Z,18.8
2022-09-11T09:03:50.357Z,18.8
2022-09-11T09:05:00.720Z,19
2022-09-11T09:06:10.577Z,19.1
2022-09-11T09:07:19.725Z,19.3
2022-09-11T09:08:29.841Z,19.5
2022-09-11T09:09:39.964Z,19.7
2022-09-11T09:10:50.072Z,19.6
2022-09-11T09:12:00.199Z,19.6
2022-09-11T09:13:10.307Z,19.6
2022-09-11T09:15:30.535Z,19.2
2022-09-11T09:16:40.662Z,19.2
2022-09-11T09:17:50.787Z,19.1
2022-09-11T09:19:00.894Z,19
2022-09-11T09:20:11.019Z,19.1
2022-09-11T09:21:21.140Z,19
2022-09-11T09:22:30.277Z,19
2022-09-11T09:23:40.386Z,19.1
2022-09-11T09:24:50.755Z,19.2
2022-09-11T09:26:00.622Z,19.2
2022-09-11T09:28:20.858Z,19
2022-09-11T09:29:30.966Z,18.9
2022-09-11T09:30:41.092Z,18.9
2022-09-11T09:31:51.219Z,19
2022-09-11T09:33:01.321Z,18.9
2022-09-11T09:35:21.571Z,19.1
2022-09-11T09:36:30.707Z,19.3
2022-09-11T09:37:39.834Z,19.3
2022-09-11T09:38:49.957Z,19
2022-09-11T09:40:00.081Z,19
2022-09-11T09:41:10.188Z,19.2
2022-09-11T09:42:20.311Z,19.3
2022-09-11T09:43:30.429Z,19.5
2022-09-11T09:44:40.555Z,19.7
2022-09-11T09:45:50.673Z,19.6
2022-09-11T09:47:00.796Z,19.8
2022-09-11T09:49:21.029Z,19.6
2022-09-11T09:50:31.136Z,19.7
2022-09-11T09:51:41.262Z,19.5
2022-09-11T09:52:50.397Z,19.6
2022-09-11T09:54:00.503Z,19.6
2022-09-11T09:55:10.629Z,19.7
2022-09-11T09:56:20.753Z,19.6
2022-09-11T09:57:30.870Z,19.5
2022-09-11T09:58:40.979Z,19.1
2022-09-11T09:59:51.107Z,19.3
2022-09-11T10:01:01.216Z,19.4
2022-09-11T10:03:20.733Z,19.5
2022-09-11T10:04:29.621Z,19.6
2022-09-11T10:05:39.728Z,19.7
2022-09-11T10:06:49.844Z,19.6
2022-09-11T10:07:59.968Z,19.5
2022-09-11T10:09:10.095Z,19.5
2022-09-11T10:10:20.196Z,19.5
2022-09-11T10:11:30.322Z,19.7
2022-09-11T10:12:40.432Z,19.7
2022-09-11T10:13:49.576Z,19.7
2022-09-11T10:14:58.963Z,19.7
2022-09-11T10:16:08.835Z,19.7
2022-09-11T10:17:19.204Z,19.6
2022-09-11T10:18:29.063Z,19.5
2022-09-11T10:19:39.186Z,19.5
2022-09-11T10:20:49.567Z,19.7
2022-09-11T10:21:59.418Z,19.7
2022-09-11T10:23:09.547Z,19.7
2022-09-11T10:24:19.654Z,19.7
2022-09-11T10:25:29.781Z,19.9
2022-09-11T10:26:39.904Z,20
2022-09-11T10:27:50.016Z,20
2022-09-11T10:29:00.138Z,20
2022-09-11T10:30:09.265Z,20
2022-09-11T10:31:19.392Z,19.7
2022-09-11T10:32:29.501Z,19.5
2022-09-11T10:33:39.874Z,19.5
2022-09-11T10:34:49.740Z,19.7
2022-09-11T10:35:59.866Z,19.9
2022-09-11T10:37:09.985Z,20.2
2022-09-11T10:38:19.549Z,20.3
2022-09-11T10:39:30.209Z,20.4
2022-09-11T10:40:40.336Z,20.2
2022-09-11T10:41:50.439Z,20.3
2022-09-11T10:43:00.563Z,20.5
2022-09-11T10:44:10.679Z,20.6
2022-09-11T10:45:19.815Z,20.6
2022-09-11T10:46:29.944Z,20.8
2022-09-11T10:47:40.043Z,20.6
2022-09-11T10:48:50.171Z,20.6
2022-09-11T10:50:00.295Z,20.6
2022-09-11T10:51:10.397Z,20.7
2022-09-11T10:52:20.772Z,20.7
2022-09-11T10:53:30.641Z,20.4
2022-09-11T10:54:40.765Z,19.8
2022-09-11T10:55:50.875Z,19.1
2022-09-11T10:57:00.989Z,18.9
2022-09-11T10:58:11.108Z,18.7
2022-09-11T10:59:21.231Z,18.8
2022-09-11T11:00:30.363Z,19.1
2022-09-11T11:01:40.477Z,19.4
2022-09-11T11:02:50.603Z,19.6
2022-09-11T11:03:59.743Z,20
2022-09-11T11:06:19.966Z,20.6
2022-09-11T11:07:30.092Z,20.8
2022-09-11T11:08:40.214Z,21.1
2022-09-11T11:09:50.324Z,21.1
2022-09-11T11:11:00.432Z,21.1
2022-09-11T11:12:10.549Z,21.1
2022-09-11T11:13:20.666Z,20.1
2022-09-11T11:14:30.783Z,19.7
2022-09-11T11:15:40.907Z,19.3
2022-09-11T11:16:51.028Z,19.3
2022-09-11T11:18:01.151Z,19.3
2022-09-11T11:20:20.403Z,19.4
2022-09-11T11:21:30.519Z,19.2
2022-09-11T11:22:40.626Z,19.2
2022-09-11T11:23:50.753Z,19.2
2022-09-11T11:25:00.857Z,19.3
2022-09-11T11:27:21.102Z,19.1
2022-09-11T11:28:30.239Z,19.1
2022-09-11T11:29:39.371Z,19.3
2022-09-11T11:30:49.494Z,19.4
2022-09-11T11:31:59.607Z,19.5
2022-09-11T11:33:09.727Z,19.7
2022-09-11T11:34:19.854Z,19.6
2022-09-11T11:35:29.972Z,19.9
2022-09-11T11:36:40.086Z,20.2
2022-09-11T11:37:50.207Z,20.4
2022-09-11T11:39:00.314Z,20.6
2022-09-11T11:40:10.434Z,20.8
2022-09-11T11:41:19.569Z,20.9
2022-09-11T11:42:28.705Z,20.9
2022-09-11T11:43:38.827Z,21.1
2022-09-11T11:44:48.941Z,21
2022-09-11T11:45:59.320Z,20.9
2022-09-11T11:48:19.291Z,21
2022-09-11T11:49:29.416Z,20.8
2022-09-11T11:50:39.538Z,20.5
2022-09-11T11:51:49.659Z,20.4
2022-09-11T11:52:59.776Z,20.4
2022-09-11T11:54:09.879Z,20.6
2022-09-11T11:55:20.009Z,20.5
2022-09-11T11:56:30.112Z,20.6
2022-09-11T11:57:39.254Z,20.6
2022-09-11T11:58:49.373Z,20.5
2022-09-11T11:59:59.498Z,20.4
2022-09-11T12:01:09.600Z,20.2
2022-09-11T12:02:19.725Z,19.9
2022-09-11T12:03:29.839Z,19.5
2022-09-11T12:04:39.963Z,19.4
2022-09-11T12:05:50.066Z,19.3
2022-09-11T12:07:00.200Z,19.3
2022-09-11T12:09:20.434Z,19.5
2022-09-11T12:11:40.667Z,19.5
2022-09-11T12:12:49.803Z,19.4
2022-09-11T12:13:59.184Z,19.3
2022-09-11T12:15:09.048Z,19.1
2022-09-11T12:16:19.168Z,19.2
2022-09-11T12:17:29.287Z,19
2022-09-11T12:18:39.406Z,19.1
2022-09-11T12:19:49.533Z,19.1
2022-09-11T12:20:59.639Z,19.1
2022-09-11T12:22:09.767Z,19.2
2022-09-11T12:23:19.875Z,19.4
2022-09-11T12:24:29.987Z,19.6
2022-09-11T12:25:39.141Z,19.9
2022-09-11T12:26:48.277Z,20
2022-09-11T12:27:58.389Z,20
2022-09-11T12:29:08.514Z,20.1
2022-09-11T12:30:18.618Z,20.3
2022-09-11T12:31:28.743Z,20.1
2022-09-11T12:32:38.866Z,19.9
2022-09-11T12:33:48.976Z,19.6
2022-09-11T12:34:59.103Z,19.5
2022-09-11T12:36:09.203Z,19.7
2022-09-11T12:37:19.331Z,19.5
2022-09-11T12:38:29.451Z,19.5
2022-09-11T12:39:39.554Z,19.4
2022-09-11T12:40:49.682Z,19.2
2022-09-11T12:41:59.063Z,19.2
2022-09-11T12:43:08.937Z,19.2
2022-09-11T12:44:19.058Z,19.2
2022-09-11T12:45:29.160Z,19.3
2022-09-11T12:46:39.283Z,19.4
2022-09-11T12:47:49.405Z,19.2
2022-09-11T12:48:59.528Z,19.1
2022-09-11T12:50:09.641Z,19
2022-09-11T12:51:19.761Z,19
2022-09-11T12:52:29.864Z,19
2022-09-11T12:53:39.986Z,19.2
2022-09-11T12:54:50.107Z,19.5
2022-09-11T12:56:00.229Z,19.7
2022-09-11T12:57:09.366Z,19.5
2022-09-11T12:58:19.483Z,19.5
2022-09-11T12:59:29.586Z,19.5
2022-09-11T13:00:39.715Z,19.5
2022-09-11T13:01:49.820Z,19.5
2022-09-11T13:02:59.941Z,19.5
2022-09-11T13:04:10.070Z,19.6
2022-09-11T13:05:20.184Z,19.7
2022-09-11T13:06:30.289Z,19.7
2022-09-11T13:07:40.410Z,19.8
2022-09-11T13:08:50.529Z,19.9
2022-09-11T13:10:00.659Z,19.9
2022-09-11T13:11:10.760Z,19.8
2022-09-11T13:12:19.912Z,19.6
2022-09-11T13:13:30.014Z,19.6
2022-09-11T13:14:40.143Z,19.4
2022-09-11T13:17:00.626Z,19.4
2022-09-11T13:18:10.488Z,19.3
2022-09-11T13:19:20.608Z,19.4
2022-09-11T13:20:30.731Z,19.5
2022-09-11T13:21:40.840Z,19.5
2022-09-11T13:22:50.968Z,19.6
2022-09-11T13:24:01.076Z,19.7
2022-09-11T13:25:11.186Z,19.6
2022-09-11T13:26:21.311Z,19.5
2022-09-11T13:27:30.442Z,19.6
2022-09-11T13:28:40.562Z,19.6
2022-09-11T13:29:50.131Z,19.7
2022-09-11T13:31:00.799Z,19.6
2022-09-11T13:33:21.282Z,19.2
2022-09-11T13:35:41.515Z,19.5
2022-09-11T13:36:50.665Z,19.7
2022-09-11T13:40:21.015Z,20.1
2022-09-11T13:43:51.366Z,20.8
2022-09-11T13:45:01.493Z,20.9
2022-09-11T13:47:21.717Z,21.2
2022-09-11T13:49:40.976Z,21.3
2022-09-11T13:52:01.212Z,20.9
2022-09-11T13:55:31.562Z,20.8
2022-09-11T13:56:41.671Z,20.9
2022-09-11T13:59:01.909Z,21.1
2022-09-11T14:01:22.151Z,20.3
2022-09-11T14:02:31.292Z,20
2022-09-11T14:04:51.523Z,19.6
2022-09-11T14:06:00.663Z,19.5
2022-09-11T14:08:20.897Z,19.5
2022-09-11T14:09:31.012Z,19.5
2022-09-11T14:11:51.238Z,19.4
2022-09-11T14:13:01.362Z,19.4
2022-09-11T14:15:21.589Z,19.5
2022-09-11T14:18:51.958Z,19.9
2022-09-11T14:22:22.295Z,19.9
2022-09-11T14:24:42.545Z,20
2022-09-11T14:25:51.662Z,19.5
2022-09-11T14:27:01.783Z,19.3
2022-09-11T14:29:22.017Z,19.5
2022-09-11T14:31:42.245Z,19.7
2022-09-11T14:32:52.369Z,20
2022-09-11T14:34:02.490Z,20.1
2022-09-11T14:39:53.068Z,20.1
2022-09-11T14:41:02.205Z,19.8
2022-09-11T14:43:22.439Z,19.8
2022-09-11T14:45:42.675Z,19.9
2022-09-11T14:46:52.787Z,19.8
2022-09-11T14:48:02.909Z,20
2022-09-11T14:50:23.134Z,19.7
2022-09-11T14:51:33.255Z,19.4
2022-09-11T14:52:43.387Z,19.3
2022-09-11T14:53:53.490Z,19.1
2022-09-11T14:55:03.612Z,18.9
2022-09-11T14:57:23.843Z,18.8
2022-09-11T15:00:53.226Z,18.5
2022-09-11T15:02:03.339Z,18.5
2022-09-11T15:04:23.586Z,18.2
2022-09-11T15:05:32.716Z,18.3
2022-09-11T15:06:42.833Z,18.4
2022-09-11T15:07:52.940Z,18.5
2022-09-11T15:09:03.067Z,18.3
2022-09-11T15:13:43.530Z,18.3
2022-09-11T15:14:53.652Z,18.3
2022-09-11T15:16:03.774Z,18.4
2022-09-11T15:18:24.004Z,18.4
2022-09-11T15:19:34.128Z,18.4
2022-09-11T15:20:43.262Z,18.5
2022-09-11T15:21:53.377Z,18.4
2022-09-11T15:23:03.501Z,18.4
2022-09-11T15:25:23.720Z,18.2
2022-09-11T15:26:33.849Z,18.2
2022-09-11T15:27:43.973Z,18.1
2022-09-11T15:28:54.086Z,18.2
2022-09-11T15:30:04.203Z,18.1
2022-09-11T15:32:24.426Z,17.9
2022-09-11T15:33:34.553Z,18
2022-09-11T15:34:44.666Z,18
2022-09-11T15:37:04.904Z,18.1
2022-09-11T15:41:45.377Z,18.1
2022-09-11T15:42:54.512Z,18
2022-09-11T15:46:24.858Z,17.9
2022-09-11T15:47:34.979Z,17.8
2022-09-11T15:48:45.107Z,17.8
2022-09-11T15:49:55.214Z,17.7
2022-09-11T15:51:05.330Z,17.7
2022-09-11T15:53:25.565Z,17.7
2022-09-11T15:54:35.680Z,17.8
2022-09-11T15:55:45.813Z,17.8
2022-09-11T15:56:55.921Z,17.7
2022-09-11T15:58:05.059Z,17.7
2022-09-11T16:00:25.294Z,17.7
2022-09-11T16:01:35.406Z,17.7
2022-09-11T16:03:55.644Z,17.7
2022-09-11T16:05:05.755Z,17.7
2022-09-11T16:07:25.993Z,17.6
2022-09-11T16:09:46.225Z,17.5
2022-09-11T16:10:56.346Z,17.5
2022-09-11T16:12:06.459Z,17.5
2022-09-11T16:16:45.940Z,17.5
2022-09-11T16:17:56.070Z,17.5
2022-09-11T16:19:06.181Z,17.5
2022-09-11T16:21:26.426Z,17.5
2022-09-11T16:23:46.661Z,17.5
2022-09-11T16:24:56.780Z,17.5
2022-09-11T16:26:06.894Z,17.5
2022-09-11T16:28:27.133Z,17.5
2022-09-11T16:30:46.386Z,17.4
2022-09-11T16:31:56.489Z,17.4
2022-09-11T16:33:06.615Z,17.4
2022-09-11T16:35:26.856Z,17.3
2022-09-11T16:36:36.966Z,17.4
2022-09-11T16:37:47.089Z,17.4
2022-09-11T16:38:57.196Z,17.4
2022-09-11T16:40:07.316Z,17.4
2022-09-11T16:42:27.556Z,17.4
2022-09-11T16:43:37.667Z,17.4
2022-09-11T16:44:46.817Z,17.4
2022-09-11T16:47:07.034Z,17.3
2022-09-11T16:50:37.391Z,17.3
2022-09-11T16:51:47.510Z,17.2
2022-09-11T16:52:57.621Z,17.1
2022-09-11T16:54:07.743Z,17.1
2022-09-11T16:55:17.864Z,17.1
2022-09-11T16:56:27.976Z,17.1
2022-09-11T16:57:38.090Z,17.1
2022-09-11T16:58:48.216Z,17
2022-09-11T16:59:57.347Z,17
2022-09-11T17:03:27.699Z,16.9
2022-09-11T17:04:37.810Z,16.9
2022-09-11T17:05:47.933Z,16.9
2022-09-11T17:06:58.049Z,16.9
2022-09-11T17:08:08.173Z,16.8
2022-09-11T17:10:28.401Z,16.8
2022-09-11T17:11:38.524Z,16.7
2022-09-11T17:12:48.638Z,16.7
2022-09-11T17:13:58.750Z,16.7
2022-09-11T17:15:08.877Z,16.7
2022-09-11T17:17:28.122Z,16.6
2022-09-11T17:18:38.247Z,16.6
2022-09-11T17:20:58.471Z,16.6
2022-09-11T17:22:08.592Z,16.6
2022-09-11T17:24:28.824Z,16.5
2022-09-11T17:26:49.067Z,16.5
2022-09-11T17:29:09.303Z,16.4
2022-09-11T17:31:29.540Z,16.4
2022-09-11T17:32:38.667Z,16.3
2022-09-11T17:33:48.786Z,16.3
2022-09-11T17:34:58.904Z,16.3
2022-09-11T17:36:09.025Z,16.3
2022-09-11T17:38:29.256Z,16.4
2022-09-11T17:40:49.490Z,16.3
2022-09-11T17:43:09.729Z,16.3
2022-09-11T17:45:29.971Z,16.3
2022-09-11T17:47:50.204Z,16.3
2022-09-11T17:52:29.670Z,16.3
2022-09-11T17:53:39.796Z,16.3
2022-09-11T17:54:49.917Z,16.3
2022-09-11T17:56:00.037Z,16.2
2022-09-11T17:57:10.149Z,16.2
2022-09-11T18:01:50.619Z,16.1
2022-09-11T18:03:00.727Z,16.1
2022-09-11T18:04:09.869Z,16.2
2022-09-11T18:06:30.098Z,16.1
2022-09-11T18:07:40.220Z,16
2022-09-11T18:08:50.358Z,16
2022-09-11T18:11:10.566Z,16
2022-09-11T18:13:30.808Z,16
2022-09-11T18:14:40.919Z,15.9
2022-09-11T18:15:51.041Z,16